Woodland, Michigan
Current Conditions -  °F | °C
As of 11:33 PM on Saturday 22 Nov 2014 (Local Time) from KY70 Reporting Station
Overcast Overcast  
Wind Chill: 40°   Ceiling: 2100
Heat Index: 44°   Visibility: 7mi
Dew Point: 43°   Wind: 8mph
Humidity: 95%   Direction: 230°SW
Pressure: 29.87"   Gusts: NA
Location:  42.73°N, 85.13°W
Report Text: KY70 230433Z AUTO 23007KT 7SM BKN021 BKN034 OVC050 07/06 A2987 RMK AO2 T00680060
Loading
Personal Weather Stations






























Interactive Weather Map New forecast layout! Learn more

10-Day Weather Forecast

Advertisements
Track Severe Weather on mobile